Time;durP1;ratioP1;P1;durP2;ratioP2;P2;SDS_P1;SDS_P2;PMS_P1;PMS_P2;Temp;Humidity;BMP_temperature;BMP_pressure;BME280_temperature;BME280_humidity;BME280_pressure;Samples;Min_cycle;Max_cycle;Signal;HPM_P1;HPM_P2
2021/03/29 00:01:24;;;;;;;6.03;1.80;;;23.60;30.20;;;;;;5070856;28;20056;-74
2021/03/29 00:03:50;;;;;;;8.13;2.38;;;23.60;30.20;;;;;;5056166;28;20028;-74
2021/03/29 00:06:15;;;;;;;4.68;1.80;;;23.60;30.20;;;;;;5056211;28;20111;-72
2021/03/29 00:08:41;;;;;;;5.97;2.25;;;23.60;30.30;;;;;;5084948;28;20032;-72
2021/03/29 00:11:07;;;;;;;7.70;2.10;;;23.60;30.20;;;;;;5061720;28;20102;-73
2021/03/29 00:13:52;;;;;;;6.75;1.85;;;23.60;30.20;;;;;;5081929;28;20017;-73
2021/03/29 00:16:18;;;;;;;3.45;1.90;;;23.60;30.20;;;;;;5081498;28;20027;-73
2021/03/29 00:18:44;;;;;;;8.57;1.80;;;23.60;30.20;;;;;;5039829;28;20044;-72
2021/03/29 00:21:09;;;;;;;12.23;2.03;;;23.60;30.20;;;;;;5044798;28;20088;-73
2021/03/29 00:23:35;;;;;;;7.03;1.83;;;23.60;30.20;;;;;;5080675;28;20436;-73
2021/03/29 00:26:01;;;;;;;8.48;1.98;;;23.60;30.20;;;;;;5039506;28;20021;-73
2021/03/29 00:28:27;;;;;;;4.93;1.42;;;23.60;30.20;;;;;;5055991;28;20025;-73
2021/03/29 00:30:53;;;;;;;5.78;1.75;;;23.60;30.10;;;;;;5073369;28;20426;-72
2021/03/29 00:33:18;;;;;;;7.97;1.65;;;23.60;30.10;;;;;;5049944;28;20112;-73
2021/03/29 00:35:46;;;;;;;6.63;2.03;;;23.60;30.10;;;;;;5067216;28;20024;-72
2021/03/29 00:38:12;;;;;;;7.35;2.05;;;23.60;30.10;;;;;;5064472;28;20389;-73
2021/03/29 00:40:40;;;;;;;6.45;2.25;;;23.60;30.10;;;;;;5076843;28;20107;-73
2021/03/29 00:43:18;;;;;;;4.72;1.75;;;23.60;30.10;;;;;;5073789;28;20023;-72
2021/03/29 00:45:45;;;;;;;4.72;1.90;;;23.60;30.00;;;;;;5049972;28;20029;-73
2021/03/29 00:48:11;;;;;;;4.50;1.70;;;23.60;30.10;;;;;;5073310;28;20031;-72
2021/03/29 00:53:54;;;;;;;5.32;1.42;;;23.50;30.00;;;;;;5031318;28;20466;-73
2021/03/29 00:56:20;;;;;;;6.30;1.80;;;23.50;30.00;;;;;;5007656;28;20053;-73
2021/03/29 00:58:47;;;;;;;5.53;2.08;;;23.50;30.10;;;;;;4998429;28;20041;-73
2021/03/29 01:01:52;;;;;;;4.72;1.40;;;23.50;30.10;;;;;;5000203;28;20099;-73
2021/03/29 01:04:18;;;;;;;5.75;1.40;;;23.50;30.10;;;;;;4966892;28;20038;-73
2021/03/29 01:06:46;;;;;;;6.93;1.63;;;23.50;30.10;;;;;;4988857;28;20035;-73
2021/03/29 01:09:18;;;;;;;4.88;1.67;;;23.50;30.80;;;;;;4971376;28;20129;-73
2021/03/29 01:11:58;;;;;;;7.20;1.60;;;23.40;30.10;;;;;;4971797;28;20061;-73
2021/03/29 01:14:32;;;;;;;5.65;1.85;;;23.40;30.10;;;;;;4972774;28;20534;-73
2021/03/29 01:17:05;;;;;;;4.97;1.50;;;23.40;30.10;;;;;;4972090;28;20419;-72
2021/03/29 01:19:41;;;;;;;5.75;1.95;;;23.40;30.20;;;;;;4971777;28;20611;-73
2021/03/29 01:22:09;;;;;;;2.97;1.02;;;23.40;30.20;;;;;;4971579;28;20097;-74
2021/03/29 01:24:58;;;;;;;4.72;1.50;;;23.40;30.20;;;;;;4971100;28;20034;-75
2021/03/29 01:27:30;;;;;;;5.20;1.17;;;23.40;30.20;;;;;;4971557;28;20050;-75
2021/03/29 01:29:56;;;;;;;5.47;1.73;;;23.40;30.20;;;;;;4969611;28;20144;-71
2021/03/29 01:32:21;;;;;;;2.78;1.48;;;23.40;30.20;;;;;;4975749;28;20597;-71
2021/03/29 01:34:47;;;;;;;5.78;1.48;;;23.40;30.20;;;;;;5006975;28;20139;-71
2021/03/29 01:37:13;;;;;;;4.50;1.42;;;23.40;30.30;;;;;;4974963;28;20064;-71
2021/03/29 01:39:38;;;;;;;5.57;1.52;;;23.40;30.30;;;;;;4980569;28;20430;-71
2021/03/29 01:42:04;;;;;;;5.75;1.60;;;23.30;30.30;;;;;;5066043;28;20039;-71
2021/03/29 01:44:30;;;;;;;4.93;1.58;;;23.30;30.30;;;;;;5054557;28;20560;-70
2021/03/29 01:46:55;;;;;;;4.65;1.50;;;23.30;30.30;;;;;;5072131;28;20028;-71
2021/03/29 01:49:21;;;;;;;5.53;1.42;;;23.30;30.30;;;;;;5035148;28;20072;-71
2021/03/29 01:51:47;;;;;;;7.20;2.03;;;23.30;30.30;;;;;;5076591;28;20123;-71
2021/03/29 01:54:13;;;;;;;3.85;1.30;;;23.30;30.40;;;;;;5079523;28;20037;-71
2021/03/29 01:56:38;;;;;;;5.00;1.23;;;23.20;30.30;;;;;;5080618;28;20024;-71
2021/03/29 01:59:04;;;;;;;5.28;1.48;;;23.20;30.40;;;;;;5072182;28;20017;-71
2021/03/29 02:01:29;;;;;;;5.00;1.52;;;23.20;30.20;;;;;;5081622;28;20403;-72
2021/03/29 02:03:55;;;;;;;3.72;1.50;;;23.20;30.20;;;;;;5071968;28;20024;-73
2021/03/29 02:06:21;;;;;;;4.72;1.52;;;23.20;30.30;;;;;;5072141;28;20438;-73
2021/03/29 02:08:46;;;;;;;3.72;1.33;;;23.20;30.40;;;;;;5066417;28;20036;-73
2021/03/29 02:11:13;;;;;;;4.35;1.38;;;23.20;30.40;;;;;;5062614;28;20074;-72
2021/03/29 02:13:41;;;;;;;4.30;1.63;;;23.20;30.40;;;;;;5062490;28;20025;-73
2021/03/29 02:16:12;;;;;;;5.18;1.20;;;23.10;30.40;;;;;;5053769;28;20020;-73
2021/03/29 02:18:56;;;;;;;3.85;1.35;;;23.10;30.40;;;;;;5078841;28;20092;-73
2021/03/29 02:21:23;;;;;;;4.95;1.60;;;23.10;30.40;;;;;;5083916;28;20055;-73
2021/03/29 02:23:57;;;;;;;5.55;1.83;;;23.10;30.40;;;;;;5054484;28;20033;-73
2021/03/29 02:26:34;;;;;;;6.53;1.85;;;23.10;30.40;;;;;;5045694;28;20043;-72
2021/03/29 02:29:00;;;;;;;8.40;1.90;;;23.10;30.40;;;;;;5078763;28;20024;-73
2021/03/29 02:31:27;;;;;;;4.38;1.55;;;23.10;30.50;;;;;;5052613;28;20056;-70
2021/03/29 02:33:55;;;;;;;5.95;1.60;;;23.10;30.50;;;;;;5055792;28;20579;-70
2021/03/29 02:36:21;;;;;;;5.18;1.75;;;23.00;30.50;;;;;;5053204;28;20052;-70
2021/03/29 02:38:47;;;;;;;5.22;1.50;;;23.00;30.50;;;;;;5071384;28;20456;-70
2021/03/29 02:41:13;;;;;;;6.53;1.75;;;23.00;30.60;;;;;;5071134;28;20496;-70
2021/03/29 02:43:39;;;;;;;7.18;1.90;;;23.00;30.50;;;;;;5079574;28;20036;-70
2021/03/29 02:46:06;;;;;;;4.15;1.50;;;23.00;30.60;;;;;;5071932;28;20506;-71
2021/03/29 02:48:40;;;;;;;6.57;1.33;;;23.00;30.60;;;;;;5079058;28;20035;-71
2021/03/29 02:51:08;;;;;;;8.45;2.00;;;23.00;30.60;;;;;;5034425;28;20021;-73
2021/03/29 02:53:35;;;;;;;5.65;1.70;;;23.00;30.60;;;;;;5029407;28;20166;-73
2021/03/29 02:56:14;;;;;;;5.10;1.55;;;23.00;30.60;;;;;;5075943;28;20029;-73
2021/03/29 02:58:49;;;;;;;4.90;1.30;;;23.00;30.60;;;;;;5061541;28;20021;-73
2021/03/29 03:01:15;;;;;;;3.60;1.33;;;23.00;30.60;;;;;;5072373;28;20060;-73
2021/03/29 03:03:41;;;;;;;5.53;1.60;;;23.00;30.60;;;;;;5032454;28;20072;-73
2021/03/29 03:06:07;;;;;;;3.80;1.27;;;23.10;30.60;;;;;;5082617;28;20116;-73
2021/03/29 03:08:34;;;;;;;7.00;1.60;;;23.00;31.20;;;;;;5030559;28;20899;-73
2021/03/29 03:11:00;;;;;;;2.00;0.80;;;23.10;31.20;;;;;;5062737;28;20021;-73
2021/03/29 03:13:25;;;;;;;7.90;1.63;;;23.00;30.60;;;;;;5036616;28;20442;-73
2021/03/29 03:15:51;;;;;;;4.85;1.58;;;23.00;30.50;;;;;;5053348;28;20078;-73
2021/03/29 03:18:17;;;;;;;4.18;1.33;;;23.00;30.50;;;;;;5069931;28;20443;-73
2021/03/29 03:20:42;;;;;;;6.70;1.80;;;23.00;30.50;;;;;;5078307;28;20039;-73
2021/03/29 03:23:08;;;;;;;3.30;1.52;;;23.00;30.50;;;;;;5053312;28;20175;-73
2021/03/29 03:25:36;;;;;;;4.97;1.63;;;23.00;30.60;;;;;;5070818;28;20115;-73
2021/03/29 03:28:04;;;;;;;3.95;1.48;;;23.00;30.50;;;;;;5081796;28;20499;-73
2021/03/29 03:30:32;;;;;;;7.07;1.65;;;23.00;30.60;;;;;;5064032;28;20048;-73
2021/03/29 03:32:57;;;;;;;6.75;1.75;;;23.00;30.60;;;;;;5026906;28;20105;-72
2021/03/29 03:35:24;;;;;;;7.25;1.55;;;23.00;30.60;;;;;;5035321;28;20513;-73
2021/03/29 03:38:00;;;;;;;6.20;1.77;;;23.00;30.60;;;;;;5033521;28;20509;-73
2021/03/29 03:40:26;;;;;;;6.15;1.70;;;23.00;30.70;;;;;;5033819;28;20037;-73
2021/03/29 03:42:53;;;;;;;3.60;1.40;;;23.00;30.60;;;;;;5032737;28;20051;-73
2021/03/29 03:45:29;;;;;;;5.57;1.27;;;23.00;30.70;;;;;;5033960;28;20057;-73
2021/03/29 03:47:56;;;;;;;5.47;1.83;;;23.00;30.60;;;;;;5033709;28;20037;-74
2021/03/29 03:50:21;;;;;;;4.65;1.42;;;22.90;30.60;;;;;;5016482;28;20038;-73
2021/03/29 03:52:47;;;;;;;4.95;1.67;;;22.90;30.60;;;;;;5033023;28;20528;-73
2021/03/29 03:55:14;;;;;;;3.47;1.55;;;22.90;30.70;;;;;;5033515;28;20030;-74
2021/03/29 03:57:40;;;;;;;5.00;1.60;;;22.90;30.80;;;;;;5032758;28;20033;-74
2021/03/29 04:00:07;;;;;;;6.85;1.70;;;22.90;30.80;;;;;;5033429;28;20504;-74
2021/03/29 04:02:35;;;;;;;2.35;0.30;;;22.90;30.80;;;;;;5032752;28;20013;-74
2021/03/29 04:05:01;;;;;;;0.20;0.20;;;22.90;30.80;;;;;;5036954;28;20501;-74
2021/03/29 04:07:27;;;;;;;3.30;1.30;;;22.90;30.80;;;;;;5033299;28;20022;-74
2021/03/29 04:09:57;;;;;;;0.00;0.00;;;22.90;30.80;;;;;;5032887;28;20032;-74
2021/03/29 04:12:23;;;;;;;4.85;0.25;;;22.90;30.80;;;;;;5033002;28;20040;-73
2021/03/29 04:14:48;;;;;;;2.60;0.28;;;22.80;30.80;;;;;;5034156;28;20025;-74
2021/03/29 04:17:14;;;;;;;0.28;0.28;;;22.80;30.80;;;;;;5034505;28;20049;-73
2021/03/29 04:19:39;;;;;;;0.35;0.28;;;22.80;30.90;;;;;;5034554;28;20504;-74
2021/03/29 04:22:05;;;;;;;0.10;0.10;;;22.80;31.60;;;;;;5032635;28;20037;-74
2021/03/29 04:24:31;;;;;;;12.18;0.47;;;22.80;31.00;;;;;;5013144;28;20121;-74
2021/03/29 04:26:56;;;;;;;0.20;0.20;;;22.80;31.00;;;;;;5031234;28;20041;-74
2021/03/29 04:29:22;;;;;;;0.45;0.20;;;22.80;31.00;;;;;;5036106;28;20025;-74
2021/03/29 04:31:47;;;;;;;0.00;0.00;;;22.80;31.00;;;;;;5081220;28;20056;-74
2021/03/29 04:34:13;;;;;;;0.10;0.10;;;22.70;31.00;;;;;;5068322;28;20393;-74
2021/03/29 04:36:38;;;;;;;0.57;0.32;;;22.70;31.00;;;;;;5074015;28;20028;-74
2021/03/29 04:39:04;;;;;;;0.40;0.38;;;22.70;31.00;;;;;;5073418;28;20020;-74
2021/03/29 04:41:39;;;;;;;0.00;0.00;;;22.70;31.00;;;;;;5073316;28;20040;-73
2021/03/29 04:44:06;;;;;;;0.20;0.20;;;22.70;31.00;;;;;;5061371;28;20082;-74
2021/03/29 04:46:31;;;;;;;0.13;0.10;;;22.70;31.00;;;;;;5063724;28;20482;-73
2021/03/29 04:48:57;;;;;;;1.17;0.20;;;22.70;31.10;;;;;;5073319;28;20025;-74
2021/03/29 04:51:29;;;;;;;0.55;0.40;;;22.70;31.20;;;;;;5067596;28;20431;-74
2021/03/29 04:53:54;;;;;;;0.00;0.00;;;22.60;31.10;;;;;;5052975;28;20025;-74
2021/03/29 04:56:20;;;;;;;0.28;0.13;;;22.60;31.10;;;;;;5052602;28;20040;-75
2021/03/29 04:58:45;;;;;;;0.70;0.15;;;22.60;31.10;;;;;;5053255;28;20025;-74
2021/03/29 05:01:11;;;;;;;1.52;0.22;;;22.60;31.10;;;;;;5086415;28;20508;-74
2021/03/29 05:03:46;;;;;;;1.23;0.30;;;22.60;31.20;;;;;;5063034;28;20051;-73
2021/03/29 05:06:11;;;;;;;0.30;0.20;;;22.60;31.20;;;;;;5053038;28;20083;-73
2021/03/29 05:08:37;;;;;;;0.63;0.45;;;22.50;31.30;;;;;;5073153;28;20481;-73
2021/03/29 05:11:03;;;;;;;0.17;0.15;;;22.60;32.00;;;;;;5073282;28;20036;-73
2021/03/29 05:13:28;;;;;;;0.15;0.15;;;22.60;31.40;;;;;;5072532;28;20024;-73
2021/03/29 05:15:54;;;;;;;0.30;0.30;;;22.60;31.40;;;;;;5073264;28;20029;-73
2021/03/29 05:18:19;;;;;;;0.60;0.20;;;22.60;31.50;;;;;;5072838;28;20427;-73
2021/03/29 05:20:45;;;;;;;0.20;0.20;;;22.60;31.50;;;;;;5063544;28;20107;-73
2021/03/29 05:23:10;;;;;;;0.40;0.20;;;22.60;31.50;;;;;;5069502;28;20033;-73
2021/03/29 05:25:36;;;;;;;0.63;0.28;;;22.60;31.50;;;;;;5080225;28;20040;-73
2021/03/29 05:28:02;;;;;;;0.25;0.25;;;22.60;31.50;;;;;;5072948;28;20028;-73
2021/03/29 05:30:27;;;;;;;0.52;0.45;;;22.60;31.50;;;;;;5072378;28;20099;-73
2021/03/29 05:32:53;;;;;;;0.20;0.20;;;22.60;31.50;;;;;;5072555;28;20029;-74
2021/03/29 05:35:18;;;;;;;0.75;0.10;;;22.60;31.50;;;;;;5071859;28;20028;-73
2021/03/29 05:37:44;;;;;;;0.20;0.20;;;22.60;31.50;;;;;;5072512;28;20165;-73
2021/03/29 05:40:16;;;;;;;1.30;0.30;;;22.60;31.40;;;;;;5072765;28;20412;-73
2021/03/29 05:42:41;;;;;;;0.22;0.22;;;22.70;31.50;;;;;;5072328;28;20025;-73
2021/03/29 05:45:08;;;;;;;0.10;0.10;;;22.70;31.50;;;;;;5065013;28;20071;-73
2021/03/29 05:47:35;;;;;;;0.25;0.25;;;22.70;31.50;;;;;;5038031;28;20043;-73
2021/03/29 05:50:03;;;;;;;5.47;0.45;;;22.70;31.50;;;;;;5062676;28;20527;-73
2021/03/29 05:52:29;;;;;;;0.80;0.52;;;22.70;31.50;;;;;;5051911;28;20116;-73
2021/03/29 05:54:56;;;;;;;2.97;0.38;;;22.70;31.40;;;;;;5054788;28;20479;-73
2021/03/29 05:57:23;;;;;;;0.10;0.10;;;22.70;31.40;;;;;;5051259;28;20051;-73
2021/03/29 05:59:49;;;;;;;0.20;0.20;;;22.80;31.50;;;;;;5085574;28;20016;-72
2021/03/29 06:02:32;;;;;;;0.45;0.17;;;22.80;31.50;;;;;;5053789;28;20064;-73
2021/03/29 06:04:58;;;;;;;1.38;0.20;;;22.80;31.50;;;;;;5052977;28;20032;-73
2021/03/29 06:07:28;;;;;;;3.40;0.63;;;22.80;31.40;;;;;;5053874;28;20033;-73
2021/03/29 06:09:55;;;;;;;0.30;0.30;;;22.90;32.10;;;;;;5080200;28;20048;-73
2021/03/29 06:12:22;;;;;;;0.03;0.03;;;22.90;31.40;;;;;;5063091;28;20035;-73
2021/03/29 06:15:00;;;;;;;0.15;0.15;;;22.90;31.50;;;;;;5047931;28;20021;-73
2021/03/29 06:17:32;;;;;;;0.25;0.15;;;22.90;31.40;;;;;;5063362;28;20035;-72
2021/03/29 06:20:00;;;;;;;0.55;0.38;;;22.90;31.50;;;;;;5033993;28;20431;-72
2021/03/29 06:22:35;;;;;;;0.20;0.20;;;22.90;31.60;;;;;;5040590;28;20123;-73
2021/03/29 06:25:06;;;;;;;2.53;0.45;;;22.90;32.00;;;;;;5062813;28;20234;-72
2021/03/29 06:27:56;;;;;;;1.45;0.43;;;23.00;31.80;;;;;;5072053;28;20086;-72
2021/03/29 06:30:28;;;;;;;0.47;0.15;;;23.00;31.60;;;;;;5035524;28;20045;-72
2021/03/29 06:33:08;;;;;;;1.45;0.22;;;23.00;31.50;;;;;;5031631;28;20396;-72
2021/03/29 06:35:47;;;;;;;0.00;0.00;;;23.00;32.10;;;;;;5013649;28;20030;-72
2021/03/29 06:38:19;;;;;;;0.20;0.20;;;23.10;31.30;;;;;;5024803;28;20018;-72
2021/03/29 06:40:46;;;;;;;0.10;0.10;;;23.20;31.40;;;;;;5030219;28;20036;-72
2021/03/29 06:43:38;;;;;;;1.02;0.30;;;23.20;31.40;;;;;;5023773;28;20026;-72
2021/03/29 06:46:05;;;;;;;0.82;0.20;;;23.30;31.30;;;;;;5019192;28;20036;-72
2021/03/29 06:48:33;;;;;;;0.13;0.05;;;23.30;31.20;;;;;;5029754;28;20033;-72
2021/03/29 06:51:13;;;;;;;0.20;0.20;;;23.40;31.10;;;;;;5028281;28;20034;-72
2021/03/29 06:53:40;;;;;;;3.10;0.50;;;23.40;31.10;;;;;;5028219;28;20041;-72
2021/03/29 06:56:22;;;;;;;0.32;0.20;;;23.40;31.10;;;;;;5027992;28;20504;-71
2021/03/29 06:58:52;;;;;;;0.52;0.30;;;23.40;31.00;;;;;;5023565;28;20091;-71
2021/03/29 07:01:23;;;;;;;0.20;0.20;;;23.40;31.70;;;;;;5028594;28;20025;-73
2021/03/29 07:03:49;;;;;;;1.55;0.20;;;23.40;31.00;;;;;;5029670;28;20025;-72
2021/03/29 07:06:21;;;;;;;0.60;0.17;;;23.50;31.10;;;;;;5010355;28;20049;-72
2021/03/29 07:08:47;;;;;;;0.65;0.25;;;23.50;31.00;;;;;;5028841;28;20104;-72
2021/03/29 07:11:17;;;;;;;1.27;0.28;;;23.50;31.10;;;;;;5028614;28;20505;-72
2021/03/29 07:13:49;;;;;;;1.15;0.47;;;23.50;31.00;;;;;;5069611;28;20017;-72
2021/03/29 07:16:14;;;;;;;1.08;0.30;;;23.50;30.90;;;;;;5030879;28;20022;-73
2021/03/29 07:18:40;;;;;;;1.08;0.68;;;23.60;30.70;;;;;;5034105;28;20067;-72
2021/03/29 07:21:08;;;;;;;5.75;0.68;;;23.60;30.40;;;;;;5034469;28;20068;-73
2021/03/29 07:23:34;;;;;;;3.38;1.15;;;23.70;30.30;;;;;;5034764;28;20436;-72
2021/03/29 07:25:59;;;;;;;2.25;0.32;;;23.70;30.10;;;;;;5054273;28;20242;-73
2021/03/29 07:28:28;;;;;;;1.33;0.40;;;23.70;30.10;;;;;;5048024;28;20025;-72
2021/03/29 07:30:59;;;;;;;1.55;0.50;;;23.80;30.30;;;;;;5056846;28;20033;-73
2021/03/29 07:33:57;;;;;;;0.70;0.30;;;23.80;30.00;;;;;;5036398;28;20060;-73
2021/03/29 07:36:44;;;;;;;0.65;0.22;;;23.80;30.00;;;;;;5038263;28;20496;-74
2021/03/29 07:39:11;;;;;;;1.50;0.40;;;23.80;29.90;;;;;;5046622;28;20095;-74
2021/03/29 07:41:37;;;;;;;0.57;0.28;;;23.90;30.00;;;;;;5053818;28;20065;-74
2021/03/29 07:44:31;;;;;;;0.17;0.17;;;23.90;29.90;;;;;;5034941;28;20416;-72
2021/03/29 07:46:57;;;;;;;0.65;0.25;;;23.90;29.90;;;;;;5053724;28;20033;-72
2021/03/29 07:49:44;;;;;;;0.63;0.28;;;24.00;29.70;;;;;;5052754;28;20043;-70
2021/03/29 07:52:29;;;;;;;0.52;0.20;;;24.00;29.80;;;;;;5052779;28;20025;-72
2021/03/29 07:54:56;;;;;;;2.55;0.20;;;24.00;29.90;;;;;;5048803;28;20021;-68
2021/03/29 07:57:43;;;;;;;2.38;0.35;;;23.90;29.80;;;;;;5053966;28;20032;-69
2021/03/29 08:00:27;;;;;;;0.50;0.43;;;23.90;29.70;;;;;;5053386;28;20031;-74
2021/03/29 08:02:59;;;;;;;0.22;0.22;;;23.90;29.80;;;;;;5042178;28;20014;-76
2021/03/29 08:05:45;;;;;;;2.20;1.10;;;23.90;30.00;;;;;;5051781;28;20033;-74
2021/03/29 08:11:14;;;;;;;4.60;1.27;;;23.60;30.10;;;;;;5052825;28;20404;-74
2021/03/29 08:13:41;;;;;;;2.25;0.75;;;23.00;29.40;;;;;;5037180;28;20470;-75
2021/03/29 08:16:08;;;;;;;0.45;0.30;;;22.70;30.40;;;;;;5054278;28;20025;-73
2021/03/29 08:19:08;;;;;;;4.43;1.05;;;22.40;30.40;;;;;;5052181;28;20041;-72
2021/03/29 08:21:55;;;;;;;5.40;0.93;;;22.20;30.90;;;;;;5047455;28;20567;-73
2021/03/29 08:24:30;;;;;;;4.60;1.10;;;21.80;31.10;;;;;;5048860;28;20037;-75
2021/03/29 08:27:02;;;;;;;5.93;1.33;;;21.80;34.70;;;;;;5052184;28;20048;-75
2021/03/29 08:29:35;;;;;;;6.15;1.83;;;21.90;34.00;;;;;;5055726;28;20083;-72
2021/03/29 08:32:33;;;;;;;1.08;0.32;;;21.70;31.90;;;;;;5073499;28;20033;-71
2021/03/29 08:35:04;;;;;;;3.10;0.45;;;21.70;33.20;;;;;;5060393;28;20036;-74
2021/03/29 08:37:46;;;;;;;3.33;1.10;;;21.90;33.40;;;;;;5073596;28;20549;-73
2021/03/29 08:40:16;;;;;;;3.20;1.02;;;22.00;33.30;;;;;;5054576;28;20016;-71
2021/03/29 08:42:46;;;;;;;2.40;1.13;;;22.20;36.10;;;;;;5052253;28;20032;-73
2021/03/29 08:45:13;;;;;;;2.75;1.27;;;22.40;33.50;;;;;;5054052;28;20725;-72
2021/03/29 08:47:40;;;;;;;1.08;0.32;;;22.60;32.30;;;;;;5072066;28;20013;-74
2021/03/29 08:50:10;;;;;;;4.38;0.52;;;22.80;31.50;;;;;;5063762;28;20111;-75
2021/03/29 08:52:46;;;;;;;1.33;0.52;;;23.00;31.30;;;;;;5073219;28;20473;-76
2021/03/29 08:55:21;;;;;;;0.85;0.50;;;23.10;31.10;;;;;;5040990;28;20087;-75
2021/03/29 08:57:47;;;;;;;0.70;0.47;;;23.30;30.90;;;;;;5045568;28;20078;-76
2021/03/29 09:00:15;;;;;;;0.43;0.28;;;23.40;30.10;;;;;;5068486;28;20024;-75
2021/03/29 09:02:41;;;;;;;0.20;0.20;;;23.60;30.00;;;;;;5053890;28;20072;-75
2021/03/29 09:05:08;;;;;;;0.20;0.17;;;23.60;30.00;;;;;;5054697;28;20471;-76
2021/03/29 09:07:41;;;;;;;0.70;0.45;;;23.80;30.00;;;;;;5071951;28;20120;-76
2021/03/29 09:10:23;;;;;;;0.68;0.20;;;23.80;29.80;;;;;;5036186;28;20630;-74
2021/03/29 09:13:01;;;;;;;4.90;0.43;;;23.90;29.60;;;;;;5072505;28;20100;-80
2021/03/29 09:15:30;;;;;;;0.20;0.10;;;24.00;30.00;;;;;;5056911;28;20021;-75
2021/03/29 09:18:23;;;;;;;1.65;0.52;;;24.00;30.30;;;;;;5073775;28;20021;-74
2021/03/29 09:20:50;;;;;;;1.90;0.32;;;24.10;29.80;;;;;;5068256;28;20039;-74
2021/03/29 09:23:28;;;;;;;0.38;0.32;;;24.10;29.60;;;;;;5061926;28;20021;-74
2021/03/29 09:25:54;;;;;;;3.92;0.70;;;24.20;29.60;;;;;;5043736;28;20017;-74
2021/03/29 09:30:57;;;;;;;0.85;0.40;;;24.30;28.80;;;;;;5042256;28;20128;-74
2021/03/29 09:33:23;;;;;;;0.75;0.35;;;24.30;28.90;;;;;;5077530;28;20079;-79
2021/03/29 09:35:50;;;;;;;1.90;0.30;;;24.30;28.80;;;;;;5058792;28;20028;-80
2021/03/29 09:38:15;;;;;;;0.73;0.45;;;24.40;28.80;;;;;;5052668;28;20099;-80
2021/03/29 09:40:41;;;;;;;1.45;0.70;;;24.50;28.80;;;;;;5073957;28;20167;-80
2021/03/29 09:43:20;;;;;;;0.52;0.35;;;24.60;28.90;;;;;;5050856;28;20032;-80
2021/03/29 09:45:46;;;;;;;0.68;0.22;;;24.70;28.40;;;;;;5068930;28;20021;-80
2021/03/29 09:48:12;;;;;;;0.30;0.25;;;24.80;28.10;;;;;;5079946;28;20048;-80
2021/03/29 09:50:44;;;;;;;0.35;0.35;;;24.90;28.30;;;;;;5037665;28;20044;-79
2021/03/29 09:53:22;;;;;;;3.30;0.63;;;25.10;27.90;;;;;;5078160;28;20048;-80
2021/03/29 09:55:48;;;;;;;1.02;0.50;;;25.20;27.80;;;;;;5058666;28;20045;-74
2021/03/29 09:58:36;;;;;;;2.13;0.50;;;25.30;27.40;;;;;;5051188;28;20023;-75
2021/03/29 10:01:04;;;;;;;4.15;1.48;;;25.40;27.40;;;;;;5064642;28;20020;-75
2021/03/29 10:03:29;;;;;;;12.55;1.63;;;25.50;27.40;;;;;;5034680;28;20067;-74
2021/03/29 10:05:55;;;;;;;1.30;0.32;;;25.60;27.10;;;;;;5052353;28;20492;-80
2021/03/29 10:08:31;;;;;;;0.32;0.20;;;25.70;27.30;;;;;;5034177;28;20427;-80
2021/03/29 10:11:02;;;;;;;0.20;0.20;;;25.70;27.40;;;;;;5035926;28;20557;-80
2021/03/29 10:13:38;;;;;;;0.38;0.22;;;25.80;27.40;;;;;;5069469;28;20025;-80
2021/03/29 10:16:19;;;;;;;0.35;0.10;;;25.90;27.40;;;;;;5069150;28;20560;-79
2021/03/29 10:18:45;;;;;;;0.10;0.10;;;26.00;27.50;;;;;;5069248;28;21507;-80
2021/03/29 10:21:12;;;;;;;0.17;0.17;;;26.00;27.40;;;;;;5034250;28;20036;-80
2021/03/29 10:23:41;;;;;;;1.10;0.43;;;26.10;27.40;;;;;;5032818;28;20043;-80
2021/03/29 10:26:20;;;;;;;0.28;0.20;;;26.20;27.40;;;;;;5060165;28;20044;-80
2021/03/29 10:28:57;;;;;;;0.17;0.10;;;26.20;27.30;;;;;;5069479;28;20040;-80
2021/03/29 10:31:23;;;;;;;1.63;0.50;;;26.20;27.20;;;;;;5051104;28;20044;-80
2021/03/29 10:33:48;;;;;;;0.22;0.20;;;26.30;27.30;;;;;;5034114;28;20392;-80
2021/03/29 10:36:15;;;;;;;0.22;0.22;;;26.30;26.60;;;;;;5049313;28;20042;-80
2021/03/29 10:38:41;;;;;;;0.45;0.40;;;26.40;26.90;;;;;;5034295;28;20033;-80
2021/03/29 10:41:07;;;;;;;0.65;0.10;;;26.50;26.90;;;;;;5050953;28;20059;-80
2021/03/29 10:43:32;;;;;;;0.25;0.25;;;26.50;26.90;;;;;;5069382;28;20468;-80
2021/03/29 10:45:58;;;;;;;0.98;0.40;;;26.50;26.80;;;;;;5073677;28;20044;-79
2021/03/29 10:48:23;;;;;;;2.08;0.50;;;26.60;27.20;;;;;;5070425;28;20035;-79
2021/03/29 10:50:55;;;;;;;0.52;0.50;;;26.60;26.30;;;;;;5083741;28;20083;-80
2021/03/29 10:53:21;;;;;;;2.15;0.13;;;26.70;26.30;;;;;;5037680;28;20119;-80
2021/03/29 10:55:47;;;;;;;0.93;0.47;;;26.70;26.60;;;;;;5071663;28;20572;-81
2021/03/29 10:58:12;;;;;;;1.75;0.32;;;26.70;26.70;;;;;;5072227;28;20024;-81
2021/03/29 11:00:38;;;;;;;0.13;0.13;;;26.70;26.90;;;;;;5060810;28;20513;-81
2021/03/29 11:03:04;;;;;;;0.43;0.35;;;26.70;26.80;;;;;;5057696;28;20033;-80
2021/03/29 11:05:29;;;;;;;1.08;0.30;;;26.70;26.80;;;;;;5068911;28;20041;-79
2021/03/29 11:07:55;;;;;;;0.45;0.40;;;26.80;27.40;;;;;;5072006;28;20042;-79
2021/03/29 11:10:21;;;;;;;0.20;0.13;;;26.80;26.90;;;;;;5057429;28;20033;-79
2021/03/29 11:12:46;;;;;;;0.30;0.30;;;26.80;26.50;;;;;;5053525;28;20033;-79
2021/03/29 11:15:12;;;;;;;0.20;0.20;;;26.90;26.30;;;;;;5073919;28;20021;-79
2021/03/29 11:17:47;;;;;;;0.35;0.30;;;26.90;26.00;;;;;;5051697;28;20102;-79
2021/03/29 11:20:13;;;;;;;1.40;0.40;;;27.00;26.00;;;;;;5073803;28;20021;-79
2021/03/29 11:22:38;;;;;;;0.98;0.55;;;27.10;26.50;;;;;;5051724;28;20403;-79
2021/03/29 11:25:05;;;;;;;0.80;0.65;;;27.10;26.20;;;;;;5053548;28;20431;-79
2021/03/29 11:27:31;;;;;;;0.47;0.20;;;27.20;26.00;;;;;;5062810;28;20029;-79
2021/03/29 11:29:57;;;;;;;0.85;0.60;;;27.20;25.80;;;;;;5071362;28;20048;-79
2021/03/29 11:32:22;;;;;;;1.23;0.60;;;27.30;26.10;;;;;;5073045;28;20060;-78
2021/03/29 11:34:48;;;;;;;0.68;0.40;;;27.30;25.60;;;;;;5070659;28;20111;-79
2021/03/29 11:37:13;;;;;;;0.30;0.30;;;27.40;25.70;;;;;;5053432;28;20457;-79
2021/03/29 11:39:39;;;;;;;0.20;0.20;;;27.40;25.90;;;;;;5070847;28;20029;-79
2021/03/29 11:42:05;;;;;;;0.40;0.30;;;27.40;26.00;;;;;;5052594;28;20029;-78
2021/03/29 11:44:30;;;;;;;0.32;0.32;;;27.50;26.10;;;;;;5062197;28;20039;-77
2021/03/29 11:46:57;;;;;;;0.00;0.00;;;27.50;26.10;;;;;;5059622;28;20044;-80
2021/03/29 11:49:22;;;;;;;0.98;0.47;;;27.50;26.20;;;;;;5073515;28;20040;-80
2021/03/29 11:51:48;;;;;;;0.73;0.47;;;27.60;26.60;;;;;;5050133;28;20024;-80
2021/03/29 11:54:13;;;;;;;0.52;0.52;;;27.60;25.90;;;;;;5062544;28;20037;-80
2021/03/29 11:56:39;;;;;;;0.63;0.20;;;27.60;26.00;;;;;;5033408;28;20078;-80
2021/03/29 11:59:05;;;;;;;0.10;0.10;;;27.60;25.90;;;;;;5040597;28;20527;-78
2021/03/29 12:04:05;;;;;;;0.65;0.20;;;27.70;26.30;;;;;;5052245;28;20033;-77
2021/03/29 12:07:15;;;;;;;0.70;0.70;;;27.80;25.60;;;;;;5038754;28;20024;-78
2021/03/29 12:12:08;;;;;;;0.98;0.30;;;27.90;25.70;;;;;;5059401;28;20040;-78
2021/03/29 12:14:35;;;;;;;0.60;0.43;;;27.90;25.80;;;;;;5090659;28;20021;-75
2021/03/29 12:17:02;;;;;;;0.90;0.52;;;27.90;25.50;;;;;;5089711;28;20041;-75
2021/03/29 12:19:28;;;;;;;1.17;0.45;;;28.10;25.20;;;;;;5090703;28;20052;-75
2021/03/29 12:21:58;;;;;;;0.65;0.65;;;28.20;25.00;;;;;;5073765;28;20498;-75
2021/03/29 12:24:30;;;;;;;1.20;0.50;;;28.30;24.70;;;;;;5072691;28;20036;-75
2021/03/29 12:26:58;;;;;;;0.85;0.60;;;28.40;25.50;;;;;;5072214;28;20033;-75
2021/03/29 12:29:40;;;;;;;1.73;0.50;;;28.40;24.80;;;;;;5089832;28;20476;-75
2021/03/29 12:32:17;;;;;;;0.10;0.10;;;28.50;24.20;;;;;;5073806;28;20036;-75
2021/03/29 12:34:48;;;;;;;0.65;0.10;;;28.50;24.60;;;;;;5056736;28;20056;-75
2021/03/29 12:37:19;;;;;;;0.75;0.40;;;28.50;25.00;;;;;;5090200;28;20059;-75
2021/03/29 12:39:57;;;;;;;0.52;0.52;;;28.40;25.30;;;;;;5063666;28;20018;-75
2021/03/29 12:42:24;;;;;;;3.08;0.85;;;28.40;25.00;;;;;;5068125;28;20025;-75
2021/03/29 12:44:49;;;;;;;6.55;0.57;;;28.50;24.60;;;;;;5053284;28;20033;-75
2021/03/29 12:47:17;;;;;;;1.13;0.40;;;28.60;24.60;;;;;;5054586;28;20029;-75
2021/03/29 12:49:43;;;;;;;7.15;0.38;;;28.60;24.70;;;;;;5069697;28;20025;-75
2021/03/29 12:52:09;;;;;;;3.53;0.52;;;28.70;24.30;;;;;;5052625;28;20033;-75
2021/03/29 12:54:36;;;;;;;0.70;0.55;;;28.70;24.70;;;;;;5069806;28;20029;-75
2021/03/29 12:57:02;;;;;;;0.57;0.15;;;28.80;24.60;;;;;;5069497;28;20047;-75
2021/03/29 12:59:34;;;;;;;4.53;1.08;;;28.90;24.40;;;;;;5069632;28;20512;-75
2021/03/29 13:01:59;;;;;;;0.38;0.32;;;28.90;24.40;;;;;;5054256;28;20029;-75
2021/03/29 13:07:34;;;;;;;0.88;0.45;;;29.00;24.90;;;;;;5070862;28;20024;-75
2021/03/29 13:10:08;;;;;;;0.20;0.20;;;29.00;24.40;;;;;;5073064;28;20029;-75
2021/03/29 13:12:34;;;;;;;0.20;0.20;;;29.20;24.40;;;;;;5072910;28;20028;-75
2021/03/29 13:15:10;;;;;;;3.88;0.75;;;29.10;24.70;;;;;;5089282;28;20403;-75